Time;durP1;ratioP1;P1;durP2;ratioP2;P2;SDS_P1;SDS_P2;PMS_P1;PMS_P2;Temp;Humidity;BMP_temperature;BMP_pressure;BME280_temperature;BME280_humidity;BME280_pressure;Samples;Min_cycle;Max_cycle;Signal;HPM_P1;HPM_P2
2021/06/29 00:01:54;;;;;;;95.63;46.30;;;;;;;17.41;100.00;101302.59;5240342;28;20162;-84
2021/06/29 00:04:25;;;;;;;96.95;45.28;;;;;;;17.44;100.00;101298.66;5227102;28;20028;-84
2021/06/29 00:06:55;;;;;;;97.28;47.17;;;;;;;17.43;100.00;101294.28;5222525;28;20266;-84
2021/06/29 00:09:26;;;;;;;104.07;48.55;;;;;;;17.46;100.00;101291.16;5225997;28;20029;-84
2021/06/29 00:11:57;;;;;;;110.78;49.50;;;;;;;17.43;100.00;101286.16;5242186;28;20158;-84
2021/06/29 00:14:28;;;;;;;115.72;53.45;;;;;;;17.43;100.00;101278.84;5246646;28;20030;-84
2021/06/29 00:16:58;;;;;;;106.22;47.22;;;;;;;17.44;100.00;101283.22;5241965;28;20104;-84
2021/06/29 00:19:29;;;;;;;94.43;45.33;;;;;;;17.44;100.00;101282.38;5237694;28;20103;-84
2021/06/29 00:21:59;;;;;;;94.57;44.90;;;;;;;17.41;100.00;101277.34;5240854;28;20093;-84
2021/06/29 00:24:30;;;;;;;98.10;44.08;;;;;;;17.38;100.00;101269.63;5239199;28;20028;-84
2021/06/29 00:27:00;;;;;;;86.65;39.58;;;;;;;17.37;100.00;101273.38;5239657;28;20075;-84
2021/06/29 00:29:31;;;;;;;95.82;45.28;;;;;;;17.34;100.00;101267.31;5238657;28;20407;-84
2021/06/29 00:32:01;;;;;;;102.53;48.03;;;;;;;17.30;100.00;101257.06;5240485;28;20024;-84
2021/06/29 00:34:32;;;;;;;110.13;50.28;;;;;;;17.32;100.00;101269.41;5228416;28;20154;-84
2021/06/29 00:37:02;;;;;;;125.53;56.78;;;;;;;17.34;100.00;101263.78;5238356;28;20153;-84
2021/06/29 00:39:33;;;;;;;121.07;54.70;;;;;;;17.42;100.00;101257.31;5235672;28;20400;-84
2021/06/29 00:42:04;;;;;;;123.85;56.17;;;;;;;17.42;100.00;101257.31;5235721;28;20028;-84
2021/06/29 00:44:34;;;;;;;113.65;50.83;;;;;;;17.43;100.00;101243.59;5236323;28;20452;-84
2021/06/29 00:47:09;;;;;;;130.70;57.63;;;;;;;17.42;100.00;101225.66;5239529;28;20158;-84
2021/06/29 00:49:40;;;;;;;115.40;53.78;;;;;;;17.41;100.00;101223.13;5231405;28;20033;-84
2021/06/29 00:52:13;;;;;;;133.50;57.33;;;;;;;17.39;100.00;101225.19;5210394;28;20028;-84
2021/06/29 00:54:43;;;;;;;130.45;56.38;;;;;;;17.37;100.00;101236.25;5237078;28;20028;-84
2021/06/29 00:57:14;;;;;;;128.07;57.70;;;;;;;17.37;100.00;101232.69;5233134;28;20032;-84
2021/06/29 00:59:44;;;;;;;126.38;58.63;;;;;;;17.36;100.00;101234.56;5237867;28;20495;-84
2021/06/29 01:02:15;;;;;;;137.20;60.08;;;;;;;17.33;100.00;101232.28;5235042;28;20066;-84
2021/06/29 01:04:46;;;;;;;137.52;57.88;;;;;;;17.30;100.00;101224.53;5237978;28;20024;-84
2021/06/29 01:07:16;;;;;;;132.40;57.90;;;;;;;17.28;100.00;101232.88;5241170;28;20044;-84
2021/06/29 01:09:47;;;;;;;134.52;56.05;;;;;;;17.25;100.00;101229.72;5231581;28;20070;-84
2021/06/29 01:12:18;;;;;;;121.40;55.03;;;;;;;17.23;100.00;101234.50;5243915;28;20054;-84
2021/06/29 01:14:48;;;;;;;126.28;56.47;;;;;;;17.21;100.00;101229.28;5230764;28;20115;-84
2021/06/29 01:17:19;;;;;;;144.93;62.80;;;;;;;17.25;100.00;101218.88;5241069;28;20024;-84
2021/06/29 01:19:51;;;;;;;146.98;61.63;;;;;;;17.24;100.00;101215.31;5211691;28;20025;-84
2021/06/29 01:22:24;;;;;;;137.57;56.17;;;;;;;17.23;100.00;101207.41;5239933;28;20036;-84
2021/06/29 01:24:58;;;;;;;137.73;55.50;;;;;;;17.22;100.00;101211.13;5240689;28;20020;-84
2021/06/29 01:27:40;;;;;;;135.45;55.97;;;;;;;17.21;100.00;101210.28;5236460;28;20021;-84
2021/06/29 01:32:42;;;;;;;147.23;63.22;;;;;;;17.23;100.00;101199.28;5233739;28;20025;-84
2021/06/29 01:35:12;;;;;;;139.60;58.65;;;;;;;17.21;100.00;101188.59;5225786;28;20021;-84
2021/06/29 01:37:44;;;;;;;140.25;61.20;;;;;;;17.23;100.00;101183.00;5228199;28;20434;-84
2021/06/29 01:40:27;;;;;;;124.10;56.08;;;;;;;17.21;100.00;101177.75;5232650;28;20403;-84
2021/06/29 01:42:59;;;;;;;131.30;56.65;;;;;;;17.18;100.00;101178.19;5234047;28;20051;-84
2021/06/29 01:45:30;;;;;;;150.98;62.83;;;;;;;17.16;100.00;101176.69;5227492;28;20040;-84
2021/06/29 01:48:04;;;;;;;164.70;68.47;;;;;;;17.15;100.00;101186.72;5225296;28;20025;-84
2021/06/29 01:50:35;;;;;;;146.70;61.97;;;;;;;17.12;100.00;101187.13;5227188;28;20154;-84
2021/06/29 01:53:06;;;;;;;147.85;63.00;;;;;;;17.13;100.00;101199.63;5222831;28;20108;-84
2021/06/29 01:55:38;;;;;;;126.85;55.70;;;;;;;17.09;100.00;101201.91;5235866;28;20068;-84
2021/06/29 01:58:08;;;;;;;136.18;60.88;;;;;;;17.06;100.00;101207.72;5226578;28;20020;-84
2021/06/29 02:00:41;;;;;;;147.73;60.75;;;;;;;17.02;100.00;101202.91;5237566;28;20029;-84
2021/06/29 02:03:11;;;;;;;161.00;67.05;;;;;;;17.01;100.00;101203.94;5231447;28;20059;-84
2021/06/29 02:05:50;;;;;;;154.65;64.53;;;;;;;17.01;100.00;101201.22;5229834;28;20365;-84
2021/06/29 02:08:20;;;;;;;140.68;62.17;;;;;;;17.00;100.00;101202.25;5227268;28;20021;-84
2021/06/29 02:10:57;;;;;;;144.43;58.97;;;;;;;16.99;100.00;101203.31;5228171;28;20029;-84
2021/06/29 02:13:28;;;;;;;154.15;64.68;;;;;;;16.98;100.00;101210.59;5232973;28;20025;-84
2021/06/29 02:16:00;;;;;;;166.18;66.25;;;;;;;17.01;100.00;101209.34;5241260;28;20044;-84
2021/06/29 02:18:32;;;;;;;185.35;71.97;;;;;;;17.05;100.00;101208.75;5237673;28;20029;-84
2021/06/29 02:21:03;;;;;;;181.15;68.95;;;;;;;17.06;100.00;101205.00;5233994;28;20111;-84
2021/06/29 02:23:33;;;;;;;158.73;65.03;;;;;;;17.05;100.00;101202.50;5228721;28;20127;-84
2021/06/29 02:26:04;;;;;;;154.85;63.13;;;;;;;17.00;100.00;101204.97;5232774;28;20021;-84
2021/06/29 02:28:34;;;;;;;179.70;68.97;;;;;;;16.98;100.00;101205.19;5239260;28;20031;-84
2021/06/29 02:31:05;;;;;;;186.40;73.93;;;;;;;17.03;100.00;101197.28;5235297;28;20400;-84
2021/06/29 02:33:35;;;;;;;188.57;73.18;;;;;;;17.05;100.00;101191.66;5229714;28;20692;-84
2021/06/29 02:36:06;;;;;;;168.80;65.53;;;;;;;17.06;100.00;101198.75;5237832;28;20169;-84
2021/06/29 02:38:37;;;;;;;181.68;70.40;;;;;;;17.09;100.00;101206.50;5233504;28;20021;-84
2021/06/29 02:41:07;;;;;;;191.10;72.07;;;;;;;17.12;100.00;101207.94;5241779;28;20051;-84
2021/06/29 02:43:40;;;;;;;190.13;69.85;;;;;;;17.15;100.00;101210.28;5238301;28;20057;-84
2021/06/29 02:46:11;;;;;;;186.90;67.57;;;;;;;17.19;100.00;101209.66;5239433;28;20033;-84
2021/06/29 02:48:41;;;;;;;204.98;73.38;;;;;;;17.21;100.00;101209.47;5244358;28;20028;-84
2021/06/29 02:51:13;;;;;;;194.77;72.75;;;;;;;17.23;100.00;101216.38;5241690;28;20024;-84
2021/06/29 02:53:43;;;;;;;230.40;81.55;;;;;;;17.25;100.00;101213.44;5235670;28;20025;-84
2021/06/29 02:59:03;;;;;;;272.67;91.47;;;;;;;17.29;100.00;101215.56;5229653;28;20083;-84
2021/06/29 03:01:34;;;;;;;287.65;93.32;;;;;;;17.31;100.00;101213.47;5236419;28;20021;-84
2021/06/29 03:04:05;;;;;;;301.85;99.38;;;;;;;17.37;100.00;101217.28;5239603;28;20020;-84
2021/06/29 03:06:36;;;;;;;266.77;87.68;;;;;;;17.39;100.00;101215.19;5235773;28;20020;-84
2021/06/29 03:09:08;;;;;;;267.13;89.18;;;;;;;17.40;100.00;101210.59;5228521;28;20388;-84
2021/06/29 03:11:39;;;;;;;243.80;83.32;;;;;;;17.49;100.00;101215.66;5237359;28;20028;-84
2021/06/29 03:14:09;;;;;;;232.35;86.60;;;;;;;17.42;100.00;101216.66;5231087;28;20024;-84
2021/06/29 03:16:40;;;;;;;240.88;82.85;;;;;;;17.38;100.00;101208.09;5241210;28;20609;-84
2021/06/29 03:19:10;;;;;;;223.45;80.35;;;;;;;17.34;100.00;101209.53;5242410;28;20070;-84
2021/06/29 03:21:41;;;;;;;222.85;80.28;;;;;;;17.34;100.00;101210.38;5243674;28;20021;-84
2021/06/29 03:24:11;;;;;;;232.85;81.57;;;;;;;17.32;100.00;101198.91;5233291;28;20024;-84
2021/06/29 03:26:42;;;;;;;230.35;80.22;;;;;;;17.32;100.00;101198.06;5239887;28;20099;-84
2021/06/29 03:29:12;;;;;;;242.48;83.25;;;;;;;17.31;100.00;101202.63;5233816;28;20112;-84
2021/06/29 03:31:43;;;;;;;247.25;85.60;;;;;;;17.29;100.00;101204.72;5232623;28;20025;-84
2021/06/29 03:34:14;;;;;;;238.88;83.22;;;;;;;17.27;100.00;101209.50;5231713;28;20060;-84
2021/06/29 03:36:44;;;;;;;243.10;81.93;;;;;;;17.27;100.00;101209.50;5239316;28;20027;-84
2021/06/29 03:39:15;;;;;;;253.48;83.05;;;;;;;17.26;100.00;101209.69;5229924;28;20028;-84
2021/06/29 03:41:45;;;;;;;258.33;86.32;;;;;;;17.22;100.00;101206.56;5240069;28;20107;-84
2021/06/29 03:44:16;;;;;;;241.30;81.28;;;;;;;17.20;100.00;101195.06;5242280;28;20024;-84
2021/06/29 03:46:46;;;;;;;207.55;71.93;;;;;;;17.24;100.00;101211.78;5231945;28;20020;-85
2021/06/29 03:49:17;;;;;;;207.02;72.75;;;;;;;17.27;100.00;101200.50;5226393;28;20048;-84
2021/06/29 03:51:49;;;;;;;194.50;72.05;;;;;;;17.25;100.00;101208.03;5224838;28;20027;-84
2021/06/29 03:54:21;;;;;;;191.85;70.82;;;;;;;17.21;100.00;101212.16;5236055;28;20260;-84
2021/06/29 03:56:51;;;;;;;181.48;66.78;;;;;;;17.24;100.00;101215.31;5231885;28;20102;-84
2021/06/29 03:59:22;;;;;;;194.27;69.53;;;;;;;17.23;100.00;101213.66;5233784;28;20444;-84
2021/06/29 04:01:52;;;;;;;184.13;67.78;;;;;;;17.22;100.00;101209.28;5228627;28;20032;-84
2021/06/29 04:04:23;;;;;;;189.63;65.38;;;;;;;17.22;100.00;101206.56;5230711;28;20170;-84
2021/06/29 04:06:53;;;;;;;192.80;69.25;;;;;;;17.21;100.00;101207.59;5239744;28;20499;-84
2021/06/29 04:09:23;;;;;;;182.70;64.15;;;;;;;17.22;100.00;101214.69;5234148;28;20035;-84
2021/06/29 04:11:54;;;;;;;186.18;65.13;;;;;;;17.22;100.00;101214.69;5231265;28;20522;-84
2021/06/29 04:14:25;;;;;;;183.48;66.22;;;;;;;17.22;100.00;101217.41;5230505;28;20080;-84
2021/06/29 04:16:55;;;;;;;200.15;68.15;;;;;;;17.20;100.00;101224.91;5230809;28;20116;-84
2021/06/29 04:19:26;;;;;;;195.18;68.75;;;;;;;17.19;100.00;101216.97;5233484;28;20028;-84
2021/06/29 04:21:56;;;;;;;194.52;66.35;;;;;;;17.19;100.00;101217.81;5226741;28;20032;-84
2021/06/29 04:24:27;;;;;;;197.82;69.55;;;;;;;17.17;100.00;101211.75;5234097;28;20463;-84
2021/06/29 04:26:57;;;;;;;194.10;67.32;;;;;;;17.19;100.00;101211.53;5229985;28;20496;-84
2021/06/29 04:29:28;;;;;;;194.40;66.10;;;;;;;17.16;100.00;101214.66;5228939;28;20166;-84
2021/06/29 04:31:58;;;;;;;194.35;68.18;;;;;;;17.16;100.00;101220.91;5229375;28;20033;-84
2021/06/29 04:34:28;;;;;;;187.85;67.00;;;;;;;17.13;100.00;101213.19;5226645;28;20039;-84
2021/06/29 04:37:01;;;;;;;177.85;66.82;;;;;;;17.15;100.00;101224.66;5225897;28;20025;-84
2021/06/29 04:39:31;;;;;;;194.95;66.15;;;;;;;17.15;100.00;101224.66;5236441;28;20025;-84
2021/06/29 04:42:02;;;;;;;190.38;66.20;;;;;;;17.16;100.00;101233.63;5226384;28;20017;-84
2021/06/29 04:44:36;;;;;;;188.77;65.82;;;;;;;17.13;100.00;101226.75;5234717;28;20064;-84
2021/06/29 04:47:07;;;;;;;183.38;65.03;;;;;;;17.12;100.00;101218.78;5239582;28;20032;-84
2021/06/29 04:49:38;;;;;;;171.57;62.88;;;;;;;17.12;100.00;101227.78;5224209;28;20592;-84
2021/06/29 04:52:08;;;;;;;179.82;65.93;;;;;;;17.14;100.00;101217.56;5226722;28;20086;-84
2021/06/29 04:54:39;;;;;;;174.68;64.57;;;;;;;17.17;100.00;101228.03;5224562;28;20029;-84
2021/06/29 04:57:09;;;;;;;174.75;63.72;;;;;;;17.22;100.00;101224.69;5225909;28;20020;-84
2021/06/29 04:59:40;;;;;;;178.43;64.30;;;;;;;17.23;100.00;101227.22;5236838;28;20043;-84
2021/06/29 05:02:10;;;;;;;177.50;64.65;;;;;;;17.27;100.00;101230.34;5223649;28;20016;-84
2021/06/29 05:04:40;;;;;;;158.10;60.10;;;;;;;17.31;100.00;101228.91;5223166;28;20017;-84
2021/06/29 05:07:11;;;;;;;159.00;60.22;;;;;;;17.32;100.00;101234.16;5236241;28;20090;-84
2021/06/29 05:09:41;;;;;;;150.20;55.40;;;;;;;17.39;100.00;101230.63;5219652;28;20028;-84
2021/06/29 05:12:12;;;;;;;127.05;51.63;;;;;;;17.39;100.00;101236.88;5235932;28;20048;-84
2021/06/29 05:14:43;;;;;;;126.05;51.53;;;;;;;17.46;100.00;101242.31;5237466;28;20056;-84
2021/06/29 05:17:13;;;;;;;117.57;48.10;;;;;;;17.49;100.00;101244.66;5234445;28;20066;-84
2021/06/29 05:19:44;;;;;;;78.03;33.92;;;;;;;17.43;100.00;101248.19;5236051;28;20017;-84
2021/06/29 05:22:14;;;;;;;65.80;30.15;;;;;;;17.39;100.00;101245.03;5234419;28;20021;-84
2021/06/29 05:24:44;;;;;;;56.22;26.23;;;;;;;17.42;100.00;101239.19;5236336;28;20029;-84
2021/06/29 05:27:15;;;;;;;53.55;26.35;;;;;;;17.52;100.00;101236.94;5235417;28;20029;-84
2021/06/29 05:29:45;;;;;;;47.50;21.85;;;;;;;17.64;100.00;101234.47;5222485;28;20110;-84
2021/06/29 05:32:16;;;;;;;28.98;11.73;;;;;;;17.61;100.00;101237.59;5235251;28;20103;-84
2021/06/29 05:34:46;;;;;;;23.90;12.45;;;;;;;17.55;100.00;101238.41;5236147;28;20104;-84
2021/06/29 05:37:17;;;;;;;18.55;9.95;;;;;;;17.52;100.00;101241.50;5223268;28;20029;-84
2021/06/29 05:39:47;;;;;;;20.63;10.48;;;;;;;17.55;100.00;101247.38;5236201;28;20024;-84
2021/06/29 05:42:18;;;;;;;11.00;6.40;;;;;;;17.52;100.00;101244.22;5236949;28;20352;-84
2021/06/29 05:44:48;;;;;;;12.15;4.90;;;;;;;17.46;100.00;101248.59;5240079;28;20033;-84
2021/06/29 05:47:22;;;;;;;12.20;4.90;;;;;;;17.45;100.00;101246.91;5229705;28;20032;-84
2021/06/29 05:49:53;;;;;;;13.88;4.93;;;;;;;17.51;100.00;101251.53;5230440;28;20036;-84
2021/06/29 05:52:25;;;;;;;13.32;4.90;;;;;;;17.66;100.00;101253.25;5241221;28;20029;-84
2021/06/29 05:54:56;;;;;;;7.95;4.30;;;;;;;17.68;100.00;101251.19;5240773;28;20376;-83
2021/06/29 05:57:26;;;;;;;7.18;4.10;;;;;;;17.81;100.00;101233.09;5234311;28;20032;-83
2021/06/29 05:59:56;;;;;;;9.88;3.85;;;;;;;17.94;100.00;101232.31;5233377;28;20025;-84
2021/06/29 06:02:27;;;;;;;9.15;3.95;;;;;;;18.10;100.00;101231.09;5238564;28;20048;-84
2021/06/29 06:04:57;;;;;;;9.77;3.83;;;;;;;18.17;100.00;101231.09;5231913;28;20476;-84
2021/06/29 06:07:28;;;;;;;11.73;4.30;;;;;;;18.30;100.00;101242.81;5236657;28;20424;-84
2021/06/29 06:09:58;;;;;;;7.00;3.85;;;;;;;18.22;100.00;101244.88;5235142;28;20559;-84
2021/06/29 06:12:29;;;;;;;16.05;3.78;;;;;;;18.30;100.00;101242.81;5235319;28;20040;-84
2021/06/29 06:14:59;;;;;;;9.65;4.35;;;;;;;18.33;100.00;101239.69;5233845;28;20395;-84
2021/06/29 06:17:31;;;;;;;7.95;3.97;;;;;;;18.29;100.00;101241.13;5234261;28;20111;-84
2021/06/29 06:20:01;;;;;;;10.38;4.13;;;;;;;18.35;100.00;101243.00;5233076;28;20017;-84
2021/06/29 06:22:31;;;;;;;7.40;4.18;;;;;;;18.47;100.00;101234.25;5240699;28;20475;-84
2021/06/29 06:25:04;;;;;;;6.85;3.45;;;;;;;19.04;100.00;101238.19;5233188;28;20108;-84
2021/06/29 06:27:35;;;;;;;8.93;3.75;;;;;;;19.96;100.00;101241.63;5237425;28;20109;-84
2021/06/29 06:30:06;;;;;;;6.70;4.13;;;;;;;21.27;100.00;101244.28;5237810;28;20044;-84
2021/06/29 06:32:36;;;;;;;6.78;3.67;;;;;;;22.14;100.00;101238.56;5232479;28;20032;-84
2021/06/29 06:35:08;;;;;;;9.63;3.30;;;;;;;22.59;100.00;101236.19;5231927;28;20053;-84
2021/06/29 06:37:38;;;;;;;12.18;3.72;;;;;;;22.92;100.00;101237.53;5231507;28;20029;-84
2021/06/29 06:40:10;;;;;;;7.72;3.58;;;;;;;23.74;100.00;101242.84;5236981;28;20044;-84
2021/06/29 06:42:41;;;;;;;9.25;4.65;;;;;;;24.24;100.00;101239.38;5244224;28;20032;-84
2021/06/29 06:45:12;;;;;;;7.88;4.30;;;;;;;24.33;100.00;101243.38;5242505;28;20028;-84
2021/06/29 06:47:42;;;;;;;8.25;3.97;;;;;;;24.07;100.00;101247.59;5235133;28;20165;-84
2021/06/29 06:50:13;;;;;;;8.70;4.57;;;;;;;23.66;100.00;101243.25;5232692;28;20029;-84
2021/06/29 06:52:43;;;;;;;12.27;4.20;;;;;;;23.49;100.00;101234.91;5237603;28;20028;-84
2021/06/29 06:55:14;;;;;;;6.45;3.78;;;;;;;23.41;100.00;101235.31;5237377;28;20044;-84
2021/06/29 06:57:46;;;;;;;11.95;4.22;;;;;;;23.10;100.00;101233.81;5236871;28;20455;-84
2021/06/29 07:00:17;;;;;;;11.38;4.43;;;;;;;22.85;100.00;101231.31;5231055;28;20020;-84
2021/06/29 07:02:47;;;;;;;7.63;3.88;;;;;;;23.17;100.00;101229.03;5242507;28;20078;-84
2021/06/29 07:05:18;;;;;;;8.93;3.83;;;;;;;22.71;100.00;101227.97;5227246;28;20025;-84
2021/06/29 07:07:48;;;;;;;7.65;4.15;;;;;;;22.44;100.00;101224.84;5237851;28;20108;-85
2021/06/29 07:10:19;;;;;;;8.93;4.30;;;;;;;22.25;100.00;101220.56;5234411;28;20077;-85
2021/06/29 07:12:49;;;;;;;7.20;4.75;;;;;;;21.54;100.00;101217.56;5243779;28;20483;-86
2021/06/29 07:15:21;;;;;;;12.60;4.80;;;;;;;21.22;100.00;101214.13;5238130;28;20031;-84
2021/06/29 07:17:51;;;;;;;14.38;4.57;;;;;;;21.17;100.00;101216.69;5250047;28;20076;-84
2021/06/29 07:20:23;;;;;;;9.85;4.97;;;;;;;21.21;100.00;101216.00;5252452;28;20062;-84
2021/06/29 07:22:53;;;;;;;10.40;4.60;;;;;;;21.43;100.00;101221.84;5233670;28;20024;-84
2021/06/29 07:25:24;;;;;;;10.10;4.78;;;;;;;21.29;100.00;101214.88;5232569;28;20033;-84
2021/06/29 07:27:54;;;;;;;9.43;5.00;;;;;;;21.51;100.00;101206.25;5232511;28;20484;-84
2021/06/29 07:30:24;;;;;;;10.18;5.40;;;;;;;21.52;100.00;101206.00;5233418;28;20468;-84
2021/06/29 07:32:58;;;;;;;12.23;4.93;;;;;;;21.24;100.00;101208.47;5244427;28;20040;-84
2021/06/29 07:35:30;;;;;;;6.07;4.47;;;;;;;21.39;100.00;101211.66;5233056;28;20035;-84
2021/06/29 07:38:01;;;;;;;8.38;5.20;;;;;;;21.29;100.00;101206.72;5242879;28;20071;-84
2021/06/29 07:40:32;;;;;;;7.78;4.70;;;;;;;21.44;100.00;101209.91;5235887;28;20464;-84
2021/06/29 07:43:03;;;;;;;10.15;4.85;;;;;;;21.35;100.00;101205.81;5243891;28;20032;-84
2021/06/29 07:45:33;;;;;;;11.60;5.50;;;;;;;21.26;100.00;101211.78;5236576;28;20033;-84
2021/06/29 07:48:04;;;;;;;9.20;5.20;;;;;;;21.43;100.00;101204.66;5239940;28;20025;-84
2021/06/29 07:50:35;;;;;;;13.77;5.22;;;;;;;21.67;100.00;101211.91;5236351;28;20033;-84
2021/06/29 07:53:05;;;;;;;9.02;5.07;;;;;;;21.62;100.00;101219.13;5224793;28;20329;-84
2021/06/29 07:55:36;;;;;;;10.48;5.05;;;;;;;21.90;100.00;101208.44;5225051;28;20067;-84
2021/06/29 07:58:06;;;;;;;11.15;5.88;;;;;;;22.17;100.00;101210.78;5224373;28;20032;-84
2021/06/29 08:00:37;;;;;;;10.15;4.93;;;;;;;22.43;100.00;101217.72;5224641;28;20460;-84
2021/06/29 08:03:07;;;;;;;16.95;5.90;;;;;;;21.94;100.00;101209.63;5231199;28;20025;-84
2021/06/29 08:05:38;;;;;;;14.07;5.70;;;;;;;22.22;100.00;101208.19;5242230;28;20048;-84
2021/06/29 08:08:09;;;;;;;10.48;5.05;;;;;;;22.30;100.00;101210.59;5227012;28;20032;-84
2021/06/29 08:10:39;;;;;;;14.93;5.60;;;;;;;22.55;100.00;101201.34;5224250;28;20044;-84
2021/06/29 08:13:11;;;;;;;12.60;6.15;;;;;;;22.62;100.00;101204.78;5223854;28;20029;-83
2021/06/29 08:15:41;;;;;;;12.23;5.68;;;;;;;22.67;100.00;101204.91;5209880;28;20031;-84
2021/06/29 08:18:12;;;;;;;11.45;6.45;;;;;;;22.59;100.00;101197.03;5230227;28;20020;-84
2021/06/29 08:20:44;;;;;;;11.05;6.05;;;;;;;22.70;100.00;101198.97;5232256;28;20021;-84
2021/06/29 08:23:14;;;;;;;9.75;5.90;;;;;;;23.04;100.00;101210.13;5227699;28;20380;-84
2021/06/29 08:25:45;;;;;;;8.85;4.60;;;;;;;23.21;100.00;101202.88;5225944;28;20071;-84
2021/06/29 08:28:15;;;;;;;9.55;4.95;;;;;;;23.36;100.00;101211.41;5232755;28;20025;-83
2021/06/29 08:30:46;;;;;;;9.55;5.45;;;;;;;23.18;100.00;101204.16;5233172;28;20055;-84
2021/06/29 08:33:21;;;;;;;13.18;6.10;;;;;;;23.11;100.00;101213.59;5232853;28;20048;-84
2021/06/29 08:35:52;;;;;;;11.13;6.07;;;;;;;23.22;100.00;101220.94;5229323;28;20025;-84
2021/06/29 08:38:22;;;;;;;12.23;6.47;;;;;;;23.37;100.00;101212.22;5224002;28;20035;-84
2021/06/29 08:40:53;;;;;;;11.45;5.50;;;;;;;23.68;100.00;101216.44;5226906;28;20460;-84
2021/06/29 08:43:24;;;;;;;9.68;4.60;;;;;;;23.83;100.00;101210.41;5222393;28;20364;-84
2021/06/29 08:45:56;;;;;;;9.07;4.30;;;;;;;24.04;100.00;101217.91;5242091;28;20426;-84
2021/06/29 08:48:26;;;;;;;10.95;5.00;;;;;;;24.04;100.00;101220.66;5240814;28;20035;-84
2021/06/29 08:50:59;;;;;;;10.85;4.70;;;;;;;23.82;100.00;101217.81;5225807;28;20025;-84
2021/06/29 08:53:31;;;;;;;9.45;4.80;;;;;;;23.87;100.00;101217.91;5223810;28;20025;-84
2021/06/29 08:56:03;;;;;;;9.50;4.97;;;;;;;23.87;100.00;101214.31;5226303;28;20096;-84
2021/06/29 08:58:34;;;;;;;13.57;4.95;;;;;;;23.74;100.00;101219.00;5223192;28;20460;-85
2021/06/29 09:01:05;;;;;;;14.55;7.07;;;;;;;23.61;100.00;101213.00;5235997;28;20286;-85
2021/06/29 09:03:36;;;;;;;9.32;4.82;;;;;;;23.75;100.00;101214.41;5225438;28;20096;-85
2021/06/29 09:06:07;;;;;;;9.52;4.97;;;;;;;23.66;100.00;101208.47;5237290;28;20543;-86
2021/06/29 09:08:42;;;;;;;8.07;5.47;;;;;;;23.63;100.00;101213.56;5223258;28;20021;-85
2021/06/29 09:11:16;;;;;;;12.98;4.63;;;;;;;23.49;100.00;101213.88;5227451;28;20592;-85
2021/06/29 09:14:09;;;;;;;8.60;4.60;;;;;;;23.58;100.00;101210.72;5231982;28;20435;-86
2021/06/29 09:16:39;;;;;;;6.78;4.00;;;;;;;23.35;100.00;101214.38;5223081;28;20460;-85
2021/06/29 09:19:10;;;;;;;6.57;3.67;;;;;;;23.11;100.00;101205.38;5222193;28;20096;-85
2021/06/29 09:21:40;;;;;;;11.75;4.00;;;;;;;23.70;100.00;101212.38;5239594;28;20438;-85
2021/06/29 09:24:11;;;;;;;11.98;4.25;;;;;;;23.96;100.00;101216.44;5226270;28;20213;-85
2021/06/29 09:26:41;;;;;;;6.45;4.30;;;;;;;23.84;100.00;101206.59;5238862;28;20028;-85
2021/06/29 09:29:12;;;;;;;9.18;4.13;;;;;;;23.97;100.00;101200.81;5233020;28;20018;-85
2021/06/29 09:31:45;;;;;;;9.48;4.57;;;;;;;23.88;100.00;101203.13;5228353;28;20032;-84
2021/06/29 09:34:15;;;;;;;9.32;5.13;;;;;;;23.91;100.00;101199.91;5235963;28;20028;-83
2021/06/29 09:36:46;;;;;;;10.50;5.43;;;;;;;23.94;100.00;101196.66;5231988;28;20542;-83
2021/06/29 09:39:19;;;;;;;10.52;5.03;;;;;;;23.88;100.00;101207.78;5226651;28;20029;-83
2021/06/29 09:42:01;;;;;;;9.07;4.90;;;;;;;24.19;100.00;101209.13;5226420;28;20061;-83
2021/06/29 09:44:35;;;;;;;9.90;5.57;;;;;;;24.00;100.00;101205.81;5233382;28;20032;-83
2021/06/29 09:47:23;;;;;;;14.60;6.55;;;;;;;23.54;100.00;101204.88;5223356;28;20035;-83
2021/06/29 09:49:53;;;;;;;13.27;6.00;;;;;;;23.90;100.00;101200.97;5221914;28;20025;-83
2021/06/29 09:52:32;;;;;;;10.15;5.95;;;;;;;23.19;100.00;101208.59;5228189;28;20027;-83
2021/06/29 09:55:03;;;;;;;12.57;6.15;;;;;;;23.46;100.00;101208.88;5223311;28;20024;-82
2021/06/29 09:57:34;;;;;;;9.88;5.50;;;;;;;23.74;100.00;101213.53;5230459;28;20107;-83
2021/06/29 10:00:05;;;;;;;13.18;6.22;;;;;;;23.59;100.00;101215.13;5226106;28;20106;-83
2021/06/29 10:02:37;;;;;;;10.32;6.07;;;;;;;23.98;100.00;101221.66;5221815;28;20044;-83
2021/06/29 10:05:20;;;;;;;10.70;5.75;;;;;;;23.96;100.00;101221.09;5226023;28;20210;-83
2021/06/29 10:07:52;;;;;;;12.45;6.25;;;;;;;23.24;100.00;101210.56;5230494;28;20020;-83
2021/06/29 10:10:23;;;;;;;14.75;5.97;;;;;;;23.47;100.00;101223.38;5221773;28;20434;-83
2021/06/29 10:13:15;;;;;;;13.73;6.55;;;;;;;23.25;100.00;101215.81;5221212;28;20054;-84
2021/06/29 10:15:45;;;;;;;9.57;6.10;;;;;;;23.48;100.00;101225.03;5233276;28;20487;-83
2021/06/29 10:18:16;;;;;;;11.45;7.28;;;;;;;23.16;100.00;101232.88;5223070;28;20040;-83
2021/06/29 10:20:55;;;;;;;10.48;7.32;;;;;;;23.55;100.00;101224.91;5231471;28;20016;-83
2021/06/29 10:23:26;;;;;;;11.25;6.90;;;;;;;23.16;100.00;101224.66;5229549;28;20016;-84
2021/06/29 10:25:58;;;;;;;15.68;7.05;;;;;;;23.16;100.00;101227.38;5223896;28;20542;-84
2021/06/29 10:28:29;;;;;;;12.00;6.93;;;;;;;23.86;100.00;101221.72;5221456;28;20032;-82
2021/06/29 10:31:00;;;;;;;10.68;7.25;;;;;;;23.66;100.00;101218.59;5235541;28;20024;-83
2021/06/29 10:33:32;;;;;;;20.77;7.82;;;;;;;23.50;100.00;101221.00;5238505;28;20107;-83
2021/06/29 10:36:04;;;;;;;11.23;7.43;;;;;;;23.55;100.00;101214.78;5225327;28;20383;-83
2021/06/29 10:38:35;;;;;;;15.38;8.60;;;;;;;23.63;100.00;101216.31;5224832;28;20028;-83
2021/06/29 10:41:05;;;;;;;12.60;7.95;;;;;;;23.93;100.00;101216.06;5230838;28;20013;-83
2021/06/29 10:43:37;;;;;;;11.85;7.85;;;;;;;23.88;100.00;101213.25;5231165;28;20025;-83
2021/06/29 10:46:37;;;;;;;12.10;7.88;;;;;;;24.34;100.00;101209.41;5229906;28;20075;-83
2021/06/29 10:49:38;;;;;;;12.57;7.93;;;;;;;24.07;100.00;101205.66;5228957;28;20072;-83
2021/06/29 10:52:31;;;;;;;13.75;8.32;;;;;;;24.12;100.00;101203.81;5217171;28;20057;-82
2021/06/29 10:55:20;;;;;;;11.10;7.50;;;;;;;24.14;100.00;101206.31;5223709;28;20025;-83
2021/06/29 10:57:58;;;;;;;10.65;7.43;;;;;;;24.68;100.00;101198.44;5224578;28;20032;-83
2021/06/29 11:00:34;;;;;;;10.77;7.18;;;;;;;24.96;100.00;101209.28;5229753;28;20534;-83
2021/06/29 11:03:11;;;;;;;13.13;6.80;;;;;;;24.81;100.00;101198.09;5224586;28;20017;-83
2021/06/29 11:05:44;;;;;;;9.55;6.47;;;;;;;25.07;100.00;101207.53;5228472;28;20021;-83
2021/06/29 11:08:19;;;;;;;14.18;7.13;;;;;;;24.79;100.00;101201.06;5237185;28;20029;-83
2021/06/29 11:10:52;;;;;;;19.05;7.15;;;;;;;24.47;100.00;101198.13;5233272;28;20052;-83
2021/06/29 11:13:46;;;;;;;12.98;7.80;;;;;;;24.46;100.00;101193.75;5224741;28;20029;-83
2021/06/29 11:16:17;;;;;;;11.70;7.22;;;;;;;24.61;100.00;101189.56;5224313;28;20033;-83
2021/06/29 11:18:49;;;;;;;14.50;6.60;;;;;;;24.94;100.00;101191.41;5233488;28;20108;-83
2021/06/29 11:21:19;;;;;;;11.90;7.25;;;;;;;24.99;100.00;101200.53;5228327;28;20036;-83
2021/06/29 11:23:50;;;;;;;15.43;7.05;;;;;;;25.02;100.00;101196.47;5233284;28;20431;-83
2021/06/29 11:26:21;;;;;;;10.18;6.90;;;;;;;25.28;100.00;101194.91;5232179;28;20059;-83
2021/06/29 11:28:59;;;;;;;10.57;6.57;;;;;;;25.12;100.00;101190.31;5235649;28;20017;-83
2021/06/29 11:31:33;;;;;;;14.15;7.80;;;;;;;25.18;100.00;101195.59;5238031;28;20039;-83